Time;durP1;ratioP1;P1;durP2;ratioP2;P2;SDS_P1;SDS_P2;PMS_P1;PMS_P2;Temp;Humidity;BMP_temperature;BMP_pressure;BME280_temperature;BME280_humidity;BME280_pressure;Samples;Min_cycle;Max_cycle;Signal;HPM_P1;HPM_P2
2021/10/14 00:01:35;;;;;;;4.38;3.80;;;;;;;;;;4990172;28;20109;-38
2021/10/14 00:04:00;;;;;;;7.90;2.92;;;;;;;;;;4989024;28;20023;-39
2021/10/14 00:06:26;;;;;;;5.70;2.97;;;;;;;;;;4985495;28;20026;-40
2021/10/14 00:08:51;;;;;;;10.52;2.60;;;;;;;;;;4987168;28;20551;-41
2021/10/14 00:11:16;;;;;;;2.15;1.95;;;;;;;;;;4991760;28;20517;-40
2021/10/14 00:13:42;;;;;;;3.97;1.83;;;;;;;;;;4995048;28;20030;-43
2021/10/14 00:16:07;;;;;;;6.25;1.70;;;;;;;;;;4988725;28;20018;-42
2021/10/14 00:18:32;;;;;;;6.32;1.95;;;;;;;;;;4982032;28;20117;-44
2021/10/14 00:20:58;;;;;;;4.25;2.40;;;;;;;;;;4983524;28;20027;-38
2021/10/14 00:23:24;;;;;;;6.00;3.28;;;;;;;;;;4991957;28;20083;-42
2021/10/14 00:25:50;;;;;;;6.85;3.63;;;;;;;;;;4991465;28;20067;-41
2021/10/14 00:28:15;;;;;;;5.80;2.97;;;;;;;;;;4992749;28;20029;-41
2021/10/14 00:30:40;;;;;;;5.20;2.38;;;;;;;;;;4985990;28;20035;-47
2021/10/14 00:33:06;;;;;;;8.20;2.95;;;;;;;;;;4994015;28;20026;-43
2021/10/14 00:35:31;;;;;;;10.55;2.38;;;;;;;;;;4990399;28;20014;-38
2021/10/14 00:37:56;;;;;;;6.57;3.38;;;;;;;;;;4990643;28;20014;-41
2021/10/14 00:40:22;;;;;;;12.73;2.20;;;;;;;;;;4993175;28;20554;-37
2021/10/14 00:42:48;;;;;;;12.75;2.90;;;;;;;;;;4991882;28;20487;-39
2021/10/14 00:45:13;;;;;;;10.25;2.08;;;;;;;;;;4996556;28;20097;-41
2021/10/14 00:47:38;;;;;;;8.10;2.92;;;;;;;;;;4989601;28;20049;-42
2021/10/14 00:50:06;;;;;;;3.85;2.33;;;;;;;;;;4995939;28;20026;-41
2021/10/14 00:52:34;;;;;;;5.28;2.53;;;;;;;;;;4987349;28;20034;-38
2021/10/14 00:54:59;;;;;;;12.95;2.40;;;;;;;;;;4987610;28;20022;-38
2021/10/14 00:57:25;;;;;;;7.50;3.35;;;;;;;;;;4991209;28;20550;-39
2021/10/14 00:59:51;;;;;;;2.85;1.75;;;;;;;;;;4990088;28;20028;-38
2021/10/14 01:02:16;;;;;;;15.65;2.17;;;;;;;;;;4986529;28;20025;-38
2021/10/14 01:04:41;;;;;;;3.35;1.85;;;;;;;;;;4985564;28;20026;-37
2021/10/14 01:07:07;;;;;;;4.68;2.08;;;;;;;;;;4988291;28;20558;-39
2021/10/14 01:09:32;;;;;;;4.38;1.88;;;;;;;;;;4990448;28;20029;-37
2021/10/14 01:12:01;;;;;;;1.98;1.52;;;;;;;;;;4990263;28;20118;-39
2021/10/14 01:14:27;;;;;;;4.25;1.23;;;;;;;;;;4982609;28;20106;-39
2021/10/14 01:16:52;;;;;;;5.70;3.00;;;;;;;;;;4988913;28;20105;-42
2021/10/14 01:19:17;;;;;;;8.48;1.75;;;;;;;;;;4991101;28;20060;-38
2021/10/14 01:21:43;;;;;;;8.32;3.38;;;;;;;;;;4990174;28;20451;-41
2021/10/14 01:24:08;;;;;;;4.03;2.20;;;;;;;;;;4989617;28;20039;-37
2021/10/14 01:26:34;;;;;;;6.72;2.22;;;;;;;;;;4988842;28;20386;-37
2021/10/14 01:28:59;;;;;;;4.35;2.20;;;;;;;;;;4991745;28;20032;-38
2021/10/14 01:31:25;;;;;;;6.28;2.00;;;;;;;;;;4987851;28;20030;-37
2021/10/14 01:33:51;;;;;;;6.22;3.15;;;;;;;;;;4991806;28;20076;-37
2021/10/14 01:36:16;;;;;;;5.15;2.55;;;;;;;;;;4985651;28;20158;-38
2021/10/14 01:38:42;;;;;;;6.70;3.17;;;;;;;;;;4986406;28;20092;-39
2021/10/14 01:41:07;;;;;;;3.50;2.38;;;;;;;;;;4984279;28;20585;-40
2021/10/14 01:43:33;;;;;;;18.38;3.88;;;;;;;;;;4993878;28;20482;-38
2021/10/14 01:45:58;;;;;;;10.27;2.17;;;;;;;;;;4986835;28;20050;-44
2021/10/14 01:48:24;;;;;;;8.45;3.05;;;;;;;;;;4988273;28;20022;-37
2021/10/14 01:50:49;;;;;;;4.35;2.42;;;;;;;;;;4989159;28;20025;-40
2021/10/14 01:53:14;;;;;;;8.05;2.85;;;;;;;;;;4989518;28;20022;-38
2021/10/14 01:55:40;;;;;;;4.25;2.38;;;;;;;;;;4988800;28;20026;-38
2021/10/14 01:58:05;;;;;;;10.30;3.35;;;;;;;;;;4985662;28;20026;-37
2021/10/14 02:00:31;;;;;;;7.47;2.10;;;;;;;;;;4984158;28;20075;-37
2021/10/14 02:02:56;;;;;;;9.20;2.53;;;;;;;;;;4987984;28;20046;-37
2021/10/14 02:05:21;;;;;;;6.65;2.72;;;;;;;;;;4987525;28;20082;-42
2021/10/14 02:07:47;;;;;;;4.95;2.00;;;;;;;;;;4989199;28;20030;-41
2021/10/14 02:10:12;;;;;;;6.05;1.75;;;;;;;;;;4989310;28;20631;-37
2021/10/14 02:12:37;;;;;;;6.18;1.77;;;;;;;;;;4989289;28;20360;-39
2021/10/14 02:15:03;;;;;;;4.78;1.92;;;;;;;;;;4988951;28;20030;-39
2021/10/14 02:17:28;;;;;;;4.40;2.65;;;;;;;;;;4991112;28;20023;-38
2021/10/14 02:19:54;;;;;;;6.97;1.92;;;;;;;;;;4986417;28;20384;-39
2021/10/14 02:22:19;;;;;;;4.47;2.33;;;;;;;;;;4985647;28;20270;-38
2021/10/14 02:24:44;;;;;;;7.93;2.50;;;;;;;;;;4987034;28;20022;-39
2021/10/14 02:27:09;;;;;;;3.20;1.65;;;;;;;;;;4987124;28;20371;-37
2021/10/14 02:29:35;;;;;;;9.75;2.40;;;;;;;;;;4989363;28;20246;-38
2021/10/14 02:32:00;;;;;;;13.45;2.35;;;;;;;;;;4987644;28;20048;-37
2021/10/14 02:34:25;;;;;;;6.47;1.95;;;;;;;;;;4989945;28;20399;-38
2021/10/14 02:36:51;;;;;;;4.97;2.45;;;;;;;;;;4991213;28;20026;-37
2021/10/14 02:39:16;;;;;;;4.85;2.40;;;;;;;;;;4985101;28;20115;-37
2021/10/14 02:41:41;;;;;;;8.27;2.28;;;;;;;;;;4986530;28;20097;-39
2021/10/14 02:44:06;;;;;;;3.67;2.00;;;;;;;;;;4951817;28;1206551;-43
2021/10/14 02:46:32;;;;;;;7.25;2.10;;;;;;;;;;4989554;28;20475;-42
2021/10/14 02:48:57;;;;;;;3.22;2.50;;;;;;;;;;4989151;28;20081;-43
2021/10/14 02:51:22;;;;;;;3.45;2.58;;;;;;;;;;4992104;28;20037;-38
2021/10/14 02:53:48;;;;;;;8.05;3.25;;;;;;;;;;4990524;28;20663;-39
2021/10/14 02:56:13;;;;;;;5.45;2.63;;;;;;;;;;4986847;28;20042;-38
2021/10/14 02:58:38;;;;;;;4.55;1.77;;;;;;;;;;4985555;28;20019;-38
2021/10/14 03:01:04;;;;;;;4.18;1.65;;;;;;;;;;4985904;28;21025;-37
2021/10/14 03:03:31;;;;;;;12.30;3.33;;;;;;;;;;4991235;28;20149;-39
2021/10/14 03:05:56;;;;;;;8.13;3.50;;;;;;;;;;4986749;28;20482;-37
2021/10/14 03:08:21;;;;;;;4.28;2.17;;;;;;;;;;4988191;28;20468;-39
2021/10/14 03:10:47;;;;;;;2.60;1.38;;;;;;;;;;4983634;28;20049;-37
2021/10/14 03:13:12;;;;;;;5.85;2.33;;;;;;;;;;4986386;28;20053;-38
2021/10/14 03:15:37;;;;;;;5.35;2.08;;;;;;;;;;4985984;28;20027;-40
2021/10/14 03:18:03;;;;;;;7.38;4.07;;;;;;;;;;4988755;28;20022;-39
2021/10/14 03:20:28;;;;;;;10.15;3.72;;;;;;;;;;4986156;28;20097;-37
2021/10/14 03:22:53;;;;;;;7.18;3.35;;;;;;;;;;4982376;28;20439;-39
2021/10/14 03:25:18;;;;;;;10.55;2.88;;;;;;;;;;4986408;28;20034;-38
2021/10/14 03:27:44;;;;;;;5.63;2.67;;;;;;;;;;4984370;28;20113;-43
2021/10/14 03:30:09;;;;;;;5.38;3.03;;;;;;;;;;4989917;28;20022;-39
2021/10/14 03:32:35;;;;;;;6.45;2.97;;;;;;;;;;4987128;28;20033;-37
2021/10/14 03:35:00;;;;;;;4.50;2.70;;;;;;;;;;4989724;28;20549;-38
2021/10/14 03:37:25;;;;;;;4.60;2.42;;;;;;;;;;4993194;28;20018;-38
2021/10/14 03:39:51;;;;;;;3.65;2.63;;;;;;;;;;4990346;28;20441;-37
2021/10/14 03:42:17;;;;;;;5.05;2.35;;;;;;;;;;4988032;28;20029;-37
2021/10/14 03:44:42;;;;;;;3.35;1.48;;;;;;;;;;4989287;28;20077;-39
2021/10/14 03:47:07;;;;;;;8.52;2.55;;;;;;;;;;4989919;28;20027;-38
2021/10/14 03:49:33;;;;;;;5.32;3.33;;;;;;;;;;4992553;28;20083;-38
2021/10/14 03:51:58;;;;;;;11.68;2.78;;;;;;;;;;4994245;28;20022;-43
2021/10/14 03:54:23;;;;;;;4.28;2.58;;;;;;;;;;4984370;28;20102;-44
2021/10/14 03:56:48;;;;;;;6.40;3.67;;;;;;;;;;4981462;28;20057;-38
2021/10/14 03:59:14;;;;;;;4.25;2.60;;;;;;;;;;4989492;28;20061;-39
2021/10/14 04:01:39;;;;;;;6.43;3.15;;;;;;;;;;4990098;28;20036;-39
2021/10/14 04:04:04;;;;;;;6.05;3.40;;;;;;;;;;4992467;28;20014;-39
2021/10/14 04:06:30;;;;;;;13.90;6.10;;;;;;;;;;4989740;28;20339;-38
2021/10/14 04:08:55;;;;;;;7.20;3.72;;;;;;;;;;4984851;28;20454;-38
2021/10/14 04:11:20;;;;;;;7.07;2.97;;;;;;;;;;4996559;28;20288;-37
2021/10/14 04:13:46;;;;;;;4.22;2.50;;;;;;;;;;4990929;28;20099;-38
2021/10/14 04:16:11;;;;;;;17.50;4.40;;;;;;;;;;4992749;28;20563;-40
2021/10/14 04:18:36;;;;;;;10.20;3.40;;;;;;;;;;4984923;28;20046;-40
2021/10/14 04:21:02;;;;;;;3.05;2.25;;;;;;;;;;4986577;28;20395;-42
2021/10/14 04:23:28;;;;;;;3.80;2.40;;;;;;;;;;4988920;28;20116;-41
2021/10/14 04:25:53;;;;;;;4.03;2.38;;;;;;;;;;4990445;28;20038;-38
2021/10/14 04:28:18;;;;;;;3.92;2.25;;;;;;;;;;4991350;28;20026;-40
2021/10/14 04:30:44;;;;;;;2.95;1.95;;;;;;;;;;4986204;28;20494;-41
2021/10/14 04:33:10;;;;;;;4.38;3.30;;;;;;;;;;4989658;28;20025;-38
2021/10/14 04:35:35;;;;;;;6.50;2.58;;;;;;;;;;4992832;28;20038;-41
2021/10/14 04:38:00;;;;;;;6.85;2.58;;;;;;;;;;4992078;28;20082;-37
2021/10/14 04:40:26;;;;;;;9.15;2.70;;;;;;;;;;4987177;28;20105;-38
2021/10/14 04:42:51;;;;;;;10.95;3.08;;;;;;;;;;4983299;28;20391;-40
2021/10/14 04:45:16;;;;;;;5.88;2.35;;;;;;;;;;4992644;28;20115;-38
2021/10/14 04:47:41;;;;;;;6.47;2.85;;;;;;;;;;4993408;28;20486;-40
2021/10/14 04:50:07;;;;;;;9.35;2.47;;;;;;;;;;4992403;28;20046;-38
2021/10/14 04:52:33;;;;;;;7.35;2.00;;;;;;;;;;4986580;28;20018;-39
2021/10/14 04:54:58;;;;;;;6.95;2.83;;;;;;;;;;4986705;28;20037;-38
2021/10/14 04:57:23;;;;;;;2.38;1.92;;;;;;;;;;4993042;28;20014;-41
2021/10/14 04:59:48;;;;;;;7.82;3.53;;;;;;;;;;4989265;28;20022;-40
2021/10/14 05:02:14;;;;;;;3.83;2.58;;;;;;;;;;4989578;28;20014;-42
2021/10/14 05:04:39;;;;;;;5.32;3.25;;;;;;;;;;4985014;28;20033;-38
2021/10/14 05:07:04;;;;;;;5.93;3.55;;;;;;;;;;4986866;28;20021;-37
2021/10/14 05:09:30;;;;;;;7.55;4.55;;;;;;;;;;4993114;28;20113;-41
2021/10/14 05:11:55;;;;;;;7.68;3.90;;;;;;;;;;4990957;28;20025;-38
2021/10/14 05:14:20;;;;;;;4.38;2.88;;;;;;;;;;4985882;28;20026;-38
2021/10/14 05:16:46;;;;;;;3.50;1.98;;;;;;;;;;4985162;28;20023;-41
2021/10/14 05:19:11;;;;;;;4.20;2.25;;;;;;;;;;4987345;28;20026;-38
2021/10/14 05:21:36;;;;;;;13.55;4.93;;;;;;;;;;4987817;28;20383;-40
2021/10/14 05:24:02;;;;;;;11.63;8.48;;;;;;;;;;4989480;28;20079;-40
2021/10/14 05:26:29;;;;;;;7.13;3.53;;;;;;;;;;4983891;28;20026;-41
2021/10/14 05:28:55;;;;;;;9.13;2.75;;;;;;;;;;4985841;28;20034;-40
2021/10/14 05:31:20;;;;;;;9.82;3.00;;;;;;;;;;4994881;28;20722;-37
2021/10/14 05:33:45;;;;;;;3.78;3.35;;;;;;;;;;4986139;28;20023;-39
2021/10/14 05:36:11;;;;;;;7.97;3.40;;;;;;;;;;4987488;28;20039;-39
2021/10/14 05:38:36;;;;;;;10.55;3.63;;;;;;;;;;4983750;28;20054;-39
2021/10/14 05:41:02;;;;;;;2.75;2.00;;;;;;;;;;4981407;28;20083;-41
2021/10/14 05:43:27;;;;;;;3.85;2.80;;;;;;;;;;4989780;28;20076;-38
2021/10/14 05:45:53;;;;;;;5.22;3.33;;;;;;;;;;4993438;28;20463;-39
2021/10/14 05:48:18;;;;;;;35.88;5.85;;;;;;;;;;4985277;28;20027;-41
2021/10/14 05:50:44;;;;;;;10.80;3.00;;;;;;;;;;4982342;28;20034;-38
2021/10/14 05:53:09;;;;;;;9.90;2.05;;;;;;;;;;4985337;28;20433;-38
2021/10/14 05:55:35;;;;;;;10.93;4.75;;;;;;;;;;4987318;28;20487;-40
2021/10/14 05:58:00;;;;;;;9.13;2.97;;;;;;;;;;4991083;28;20042;-38
2021/10/14 06:00:26;;;;;;;12.32;4.78;;;;;;;;;;4989457;28;20064;-41
2021/10/14 06:02:51;;;;;;;4.45;3.53;;;;;;;;;;4987374;28;20436;-38
2021/10/14 06:05:16;;;;;;;5.53;3.08;;;;;;;;;;4991593;28;20075;-37
2021/10/14 06:07:41;;;;;;;3.70;3.08;;;;;;;;;;4990872;28;20034;-38
2021/10/14 06:10:07;;;;;;;14.80;5.05;;;;;;;;;;4994788;28;20062;-39
2021/10/14 06:12:32;;;;;;;11.40;3.83;;;;;;;;;;4987269;28;20543;-39
2021/10/14 06:14:58;;;;;;;8.25;3.42;;;;;;;;;;4985227;28;20076;-38
2021/10/14 06:17:23;;;;;;;9.23;4.38;;;;;;;;;;4988355;28;20022;-43
2021/10/14 06:19:48;;;;;;;9.70;3.38;;;;;;;;;;4989732;28;20027;-39
2021/10/14 06:22:13;;;;;;;4.47;2.45;;;;;;;;;;4983725;28;20419;-38
2021/10/14 06:24:39;;;;;;;6.95;3.95;;;;;;;;;;4985566;28;20058;-38
2021/10/14 06:27:04;;;;;;;7.28;3.10;;;;;;;;;;4990740;28;20101;-39
2021/10/14 06:29:29;;;;;;;6.28;3.72;;;;;;;;;;4987015;28;20417;-37
2021/10/14 06:31:55;;;;;;;25.98;5.13;;;;;;;;;;4986202;28;20372;-38
2021/10/14 06:34:20;;;;;;;7.93;2.55;;;;;;;;;;4982237;28;20613;-38
2021/10/14 06:36:45;;;;;;;8.63;3.33;;;;;;;;;;4985545;28;20026;-40
2021/10/14 06:39:10;;;;;;;15.75;5.13;;;;;;;;;;4988209;28;20022;-39
2021/10/14 06:41:36;;;;;;;6.82;3.33;;;;;;;;;;4986362;28;20026;-40
2021/10/14 06:44:01;;;;;;;12.15;6.22;;;;;;;;;;4991012;28;20029;-37
2021/10/14 06:46:26;;;;;;;21.58;7.38;;;;;;;;;;4980338;28;20034;-39
2021/10/14 06:48:52;;;;;;;16.48;9.05;;;;;;;;;;4983403;28;20026;-38
2021/10/14 06:51:17;;;;;;;16.13;10.07;;;;;;;;;;4989838;28;20021;-38
2021/10/14 06:53:42;;;;;;;20.17;9.00;;;;;;;;;;4985732;28;20027;-42
2021/10/14 06:56:07;;;;;;;17.35;9.73;;;;;;;;;;4985610;28;20022;-41
2021/10/14 06:58:33;;;;;;;18.52;8.00;;;;;;;;;;4977737;28;20341;-40
2021/10/14 07:00:58;;;;;;;33.92;9.77;;;;;;;;;;4988436;28;20034;-42
2021/10/14 07:03:23;;;;;;;15.35;9.98;;;;;;;;;;4987218;28;20389;-52
2021/10/14 07:05:49;;;;;;;25.48;9.43;;;;;;;;;;4988040;28;20115;-49
2021/10/14 07:08:14;;;;;;;8.05;5.63;;;;;;;;;;4988996;28;20026;-50
2021/10/14 07:10:45;;;;;;;26.35;7.72;;;;;;;;;;4993093;28;20026;-53
2021/10/14 07:13:10;;;;;;;15.57;7.50;;;;;;;;;;4991152;28;20031;-48
2021/10/14 07:15:35;;;;;;;20.13;12.90;;;;;;;;;;4993567;28;20038;-52
2021/10/14 07:18:00;;;;;;;22.58;13.52;;;;;;;;;;4988484;28;20025;-47
2021/10/14 07:20:26;;;;;;;14.38;11.85;;;;;;;;;;4982346;28;20023;-47
2021/10/14 07:22:51;;;;;;;13.73;10.45;;;;;;;;;;4989743;28;20479;-45
2021/10/14 07:25:17;;;;;;;18.63;13.55;;;;;;;;;;4993633;28;20116;-51
2021/10/14 07:27:43;;;;;;;37.95;16.98;;;;;;;;;;4988435;28;20457;-50
2021/10/14 07:30:08;;;;;;;56.22;17.02;;;;;;;;;;4988971;28;20058;-52
2021/10/14 07:32:34;;;;;;;26.25;17.50;;;;;;;;;;4987712;28;20468;-46
2021/10/14 07:35:00;;;;;;;28.67;16.70;;;;;;;;;;4991689;28;20026;-52
2021/10/14 07:37:25;;;;;;;21.27;13.43;;;;;;;;;;4996336;28;20025;-51
2021/10/14 07:39:50;;;;;;;21.52;13.32;;;;;;;;;;4995501;28;20021;-50
2021/10/14 07:42:15;;;;;;;18.52;14.85;;;;;;;;;;4983582;28;20591;-47
2021/10/14 07:44:41;;;;;;;29.65;15.50;;;;;;;;;;4996535;28;20056;-50
2021/10/14 07:47:06;;;;;;;16.05;11.75;;;;;;;;;;4989972;28;20098;-50
2021/10/14 07:49:32;;;;;;;17.00;9.93;;;;;;;;;;4991186;28;20022;-52
2021/10/14 07:51:58;;;;;;;18.25;12.60;;;;;;;;;;4993118;28;20026;-49
2021/10/14 07:54:23;;;;;;;43.35;30.90;;;;;;;;;;4991185;28;20040;-46
2021/10/14 07:56:49;;;;;;;36.90;30.65;;;;;;;;;;4990623;28;20070;-48
2021/10/14 07:59:14;;;;;;;44.88;31.45;;;;;;;;;;4993070;28;20102;-47
2021/10/14 08:01:39;;;;;;;40.65;36.50;;;;;;;;;;4990809;28;20026;-50
2021/10/14 08:04:05;;;;;;;32.88;26.77;;;;;;;;;;4991533;28;20050;-51
2021/10/14 08:06:30;;;;;;;38.22;28.67;;;;;;;;;;4990721;28;20479;-53
2021/10/14 08:08:55;;;;;;;44.05;33.70;;;;;;;;;;4988753;28;20038;-49
2021/10/14 08:11:21;;;;;;;37.78;29.98;;;;;;;;;;4989405;28;20034;-52
2021/10/14 08:13:46;;;;;;;42.42;21.65;;;;;;;;;;4993279;28;20048;-54
2021/10/14 08:16:11;;;;;;;28.98;21.48;;;;;;;;;;4990439;28;20011;-54
2021/10/14 08:18:37;;;;;;;25.77;18.25;;;;;;;;;;4991238;28;20023;-54
2021/10/14 08:21:02;;;;;;;29.33;18.75;;;;;;;;;;4994490;28;20014;-55
2021/10/14 08:23:28;;;;;;;28.63;17.73;;;;;;;;;;4995510;28;20460;-55
2021/10/14 08:25:54;;;;;;;41.88;26.65;;;;;;;;;;4988686;28;20037;-52
2021/10/14 08:28:19;;;;;;;33.20;23.63;;;;;;;;;;4989067;28;20046;-55
2021/10/14 08:30:47;;;;;;;24.70;19.45;;;;;;;;;;4987110;28;20076;-55
2021/10/14 08:33:12;;;;;;;25.10;21.58;;;;;;;;;;4995759;28;20023;-55
2021/10/14 08:35:38;;;;;;;23.50;18.88;;;;;;;;;;4988492;28;20595;-57
2021/10/14 08:38:04;;;;;;;14.90;11.45;;;;;;;;;;4988256;28;20014;-55
2021/10/14 08:40:29;;;;;;;18.52;12.20;;;;;;;;;;4988379;28;20495;-55
2021/10/14 08:42:58;;;;;;;16.33;9.18;;;;;;;;;;4990413;28;20037;-56
2021/10/14 08:45:24;;;;;;;20.60;11.40;;;;;;;;;;4993894;28;20111;-55
2021/10/14 08:47:51;;;;;;;18.85;10.98;;;;;;;;;;4994618;28;20027;-56
2021/10/14 08:50:18;;;;;;;20.13;10.05;;;;;;;;;;4992212;28;20031;-54
2021/10/14 08:52:43;;;;;;;12.93;7.43;;;;;;;;;;4987348;28;20109;-56
2021/10/14 08:55:08;;;;;;;20.38;7.25;;;;;;;;;;4990344;28;20714;-54
2021/10/14 08:57:34;;;;;;;17.40;4.28;;;;;;;;;;4990726;28;20062;-53
2021/10/14 08:59:59;;;;;;;10.75;7.43;;;;;;;;;;4993115;28;20033;-55
2021/10/14 09:02:24;;;;;;;15.80;6.35;;;;;;;;;;4991168;28;20022;-55
2021/10/14 09:04:53;;;;;;;12.73;7.43;;;;;;;;;;4992626;28;20022;-54
2021/10/14 09:07:20;;;;;;;7.50;4.50;;;;;;;;;;4991580;28;20076;-55
2021/10/14 09:09:46;;;;;;;14.88;5.82;;;;;;;;;;4990836;28;20109;-54
2021/10/14 09:12:12;;;;;;;12.75;4.47;;;;;;;;;;4993382;28;20109;-55
2021/10/14 09:14:54;;;;;;;8.48;4.13;;;;;;;;;;4996367;28;20019;-52
2021/10/14 09:17:20;;;;;;;5.18;3.20;;;;;;;;;;4991650;28;20026;-53
2021/10/14 09:19:45;;;;;;;11.40;4.65;;;;;;;;;;4994054;28;20097;-53
2021/10/14 09:22:11;;;;;;;9.45;4.32;;;;;;;;;;4993604;28;20475;-50
2021/10/14 09:24:36;;;;;;;15.65;5.20;;;;;;;;;;4994308;28;20135;-53
2021/10/14 09:27:03;;;;;;;9.07;4.05;;;;;;;;;;4990166;28;20029;-50
2021/10/14 09:29:29;;;;;;;10.55;4.47;;;;;;;;;;4989434;28;20018;-50
2021/10/14 09:31:54;;;;;;;7.75;3.33;;;;;;;;;;4988585;28;20032;-49
2021/10/14 09:34:22;;;;;;;6.35;4.78;;;;;;;;;;4991321;28;20121;-47
2021/10/14 09:36:48;;;;;;;8.27;3.67;;;;;;;;;;4990256;28;20541;-45
2021/10/14 09:39:14;;;;;;;11.77;3.15;;;;;;;;;;4992699;28;20033;-47
2021/10/14 09:41:40;;;;;;;21.58;12.55;;;;;;;;;;4987932;28;20022;-49
2021/10/14 09:44:06;;;;;;;4.68;2.97;;;;;;;;;;4988979;28;20168;-50
2021/10/14 09:46:36;;;;;;;12.32;4.00;;;;;;;;;;4986320;28;20053;-48
2021/10/14 09:49:02;;;;;;;6.88;3.13;;;;;;;;;;4993364;28;20032;-44
2021/10/14 09:51:27;;;;;;;12.23;4.13;;;;;;;;;;4991323;28;20049;-44
2021/10/14 09:53:54;;;;;;;13.90;4.40;;;;;;;;;;4990650;28;20050;-48
2021/10/14 09:56:19;;;;;;;9.30;3.97;;;;;;;;;;4989643;28;20527;-45
2021/10/14 09:58:44;;;;;;;9.60;3.72;;;;;;;;;;4992184;28;20096;-47
2021/10/14 10:01:11;;;;;;;3.78;3.35;;;;;;;;;;4991416;28;20412;-48
2021/10/14 10:03:36;;;;;;;6.05;3.05;;;;;;;;;;4991806;28;20075;-49
2021/10/14 10:06:04;;;;;;;6.90;3.30;;;;;;;;;;4991584;28;20110;-47
2021/10/14 10:08:32;;;;;;;11.73;6.80;;;;;;;;;;4986668;28;20106;-46
2021/10/14 10:11:00;;;;;;;4.40;3.33;;;;;;;;;;4987407;28;20027;-53
2021/10/14 10:13:26;;;;;;;13.25;2.75;;;;;;;;;;4990300;28;20075;-51
2021/10/14 10:15:52;;;;;;;3.20;2.33;;;;;;;;;;4988757;28;20472;-48
2021/10/14 10:18:26;;;;;;;4.95;3.33;;;;;;;;;;4989261;28;20034;-49
2021/10/14 10:20:52;;;;;;;10.15;2.53;;;;;;;;;;4988395;28;20026;-49
2021/10/14 10:23:38;;;;;;;4.05;2.25;;;;;;;;;;4986238;28;20033;-47
2021/10/14 10:26:03;;;;;;;4.38;2.33;;;;;;;;;;4990108;28;20065;-50
2021/10/14 10:28:37;;;;;;;7.13;3.30;;;;;;;;;;4991030;28;20078;-51
2021/10/14 10:31:02;;;;;;;8.40;3.25;;;;;;;;;;4992840;28;20026;-49
2021/10/14 10:33:46;;;;;;;8.15;2.92;;;;;;;;;;4988691;28;20030;-51
2021/10/14 10:36:31;;;;;;;6.65;3.53;;;;;;;;;;4989548;28;20564;-51
2021/10/14 10:38:58;;;;;;;8.60;3.25;;;;;;;;;;4992956;28;20058;-49
2021/10/14 10:41:23;;;;;;;7.85;3.33;;;;;;;;;;4990893;28;20110;-50
2021/10/14 10:43:56;;;;;;;5.82;3.53;;;;;;;;;;4993547;28;20109;-47
2021/10/14 10:46:26;;;;;;;5.20;2.95;;;;;;;;;;4993739;28;20038;-50
2021/10/14 10:48:51;;;;;;;4.45;2.28;;;;;;;;;;4993259;28;20038;-49
2021/10/14 10:51:26;;;;;;;8.82;4.18;;;;;;;;;;4992868;28;20023;-47
2021/10/14 10:53:52;;;;;;;4.45;2.97;;;;;;;;;;4998668;28;20025;-50
2021/10/14 10:56:28;;;;;;;17.60;6.65;;;;;;;;;;4996822;28;20088;-50
2021/10/14 10:58:54;;;;;;;9.50;6.13;;;;;;;;;;4997239;28;20070;-53
2021/10/14 11:01:19;;;;;;;7.95;3.15;;;;;;;;;;4987863;28;20087;-46
2021/10/14 11:03:52;;;;;;;4.25;3.20;;;;;;;;;;4988005;28;20015;-44
2021/10/14 11:06:18;;;;;;;25.35;3.80;;;;;;;;;;4990939;28;20075;-46
2021/10/14 11:08:43;;;;;;;16.92;4.45;;;;;;;;;;4995365;28;20029;-45
2021/10/14 11:11:12;;;;;;;9.10;2.10;;;;;;;;;;4994334;28;20049;-45
2021/10/14 11:13:43;;;;;;;9.63;3.08;;;;;;;;;;4989282;28;20029;-53
2021/10/14 11:16:12;;;;;;;8.18;3.55;;;;;;;;;;4986739;28;20026;-50
2021/10/14 11:18:42;;;;;;;13.90;2.97;;;;;;;;;;4992327;28;20022;-50
2021/10/14 11:21:10;;;;;;;6.95;2.33;;;;;;;;;;4988639;28;20026;-48
2021/10/14 11:23:43;;;;;;;6.50;2.92;;;;;;;;;;4995849;28;20018;-50
2021/10/14 11:26:10;;;;;;;8.00;3.25;;;;;;;;;;4991125;28;20029;-49
2021/10/14 11:28:54;;;;;;;5.80;2.53;;;;;;;;;;4990020;28;20037;-48
2021/10/14 11:31:21;;;;;;;3.00;2.15;;;;;;;;;;4993660;28;20034;-48
2021/10/14 11:33:46;;;;;;;15.02;3.42;;;;;;;;;;4986981;28;20048;-46
2021/10/14 11:36:11;;;;;;;8.43;3.42;;;;;;;;;;4993258;28;20725;-58
2021/10/14 11:38:36;;;;;;;9.77;2.67;;;;;;;;;;4990382;28;20018;-52
2021/10/14 11:41:02;;;;;;;20.13;8.43;;;;;;;;;;4992288;28;20014;-55
2021/10/14 11:43:28;;;;;;;11.73;3.55;;;;;;;;;;4994729;28;20026;-55
2021/10/14 11:45:54;;;;;;;7.78;4.22;;;;;;;;;;4995427;28;20699;-56
2021/10/14 11:48:25;;;;;;;7.95;2.85;;;;;;;;;;4986732;28;20034;-56
2021/10/14 11:51:00;;;;;;;4.53;3.70;;;;;;;;;;4991412;28;20025;-55
2021/10/14 11:53:26;;;;;;;6.55;2.65;;;;;;;;;;4987876;28;20030;-55
2021/10/14 11:55:58;;;;;;;2.58;1.83;;;;;;;;;;4987722;28;20107;-52
2021/10/14 11:58:23;;;;;;;3.90;2.00;;;;;;;;;;4992010;28;20011;-55
2021/10/14 12:00:49;;;;;;;8.63;3.10;;;;;;;;;;4995465;28;20118;-55
2021/10/14 12:03:14;;;;;;;4.72;3.08;;;;;;;;;;4992370;28;20104;-55
2021/10/14 12:05:39;;;;;;;12.48;5.05;;;;;;;;;;4988527;28;20111;-54
2021/10/14 12:08:05;;;;;;;5.63;2.58;;;;;;;;;;4990691;28;20024;-53
2021/10/14 12:10:31;;;;;;;4.95;2.50;;;;;;;;;;4989828;28;20440;-55
2021/10/14 12:13:06;;;;;;;20.05;3.63;;;;;;;;;;4985441;28;20064;-55
2021/10/14 12:15:32;;;;;;;5.32;1.75;;;;;;;;;;4995884;28;20707;-53
2021/10/14 12:17:58;;;;;;;4.13;2.42;;;;;;;;;;4989479;28;20014;-48
2021/10/14 12:20:24;;;;;;;3.95;2.42;;;;;;;;;;4991417;28;20083;-49
2021/10/14 12:22:57;;;;;;;7.22;1.92;;;;;;;;;;4989707;28;20138;-46
2021/10/14 12:25:39;;;;;;;8.23;3.15;;;;;;;;;;4986515;28;20087;-55
2021/10/14 12:28:05;;;;;;;12.48;2.80;;;;;;;;;;4990867;28;20022;-56
2021/10/14 12:30:34;;;;;;;3.67;2.85;;;;;;;;;;4989049;28;20010;-50
2021/10/14 12:33:12;;;;;;;4.75;1.75;;;;;;;;;;4988740;28;20022;-56
2021/10/14 12:35:39;;;;;;;3.75;2.22;;;;;;;;;;4990057;28;20653;-54
2021/10/14 12:38:11;;;;;;;4.47;2.38;;;;;;;;;;4988773;28;20046;-49
2021/10/14 12:40:45;;;;;;;5.05;3.10;;;;;;;;;;4987727;28;20765;-52
2021/10/14 12:43:17;;;;;;;3.70;1.55;;;;;;;;;;4984541;28;20498;-54
2021/10/14 12:48:16;;;;;;;;;;;;;;;;;;4988469;28;20086;-51
2021/10/14 12:50:54;;;;;;;4.53;2.10;;;;;;;;;;4991325;28;20303;-49
2021/10/14 12:53:20;;;;;;;1.48;1.10;;;;;;;;;;4989978;28;20037;-50
2021/10/14 12:55:59;;;;;;;10.88;1.52;;;;;;;;;;4997162;28;20034;-51
2021/10/14 12:58:26;;;;;;;4.18;2.17;;;;;;;;;;4996209;28;20021;-51
2021/10/14 13:00:57;;;;;;;4.65;3.08;;;;;;;;;;4993893;28;20058;-49
2021/10/14 13:03:22;;;;;;;1.90;1.48;;;;;;;;;;4989706;28;20115;-55
2021/10/14 13:05:48;;;;;;;2.75;1.17;;;;;;;;;;4984154;28;20030;-54
2021/10/14 13:08:13;;;;;;;3.10;1.42;;;;;;;;;;4999515;28;20526;-49
2021/10/14 13:10:39;;;;;;;4.80;1.75;;;;;;;;;;5014584;28;20034;-48
2021/10/14 13:13:05;;;;;;;3.65;2.92;;;;;;;;;;4996308;28;20026;-51
2021/10/14 13:15:30;;;;;;;3.08;1.80;;;;;;;;;;5010966;28;20646;-47
2021/10/14 13:17:58;;;;;;;2.63;0.68;;;;;;;;;;4989133;28;20423;-52
2021/10/14 13:20:24;;;;;;;6.47;1.05;;;;;;;;;;4991707;28;20025;-51
2021/10/14 13:22:49;;;;;;;4.00;2.03;;;;;;;;;;4997359;28;20557;-47
2021/10/14 13:25:14;;;;;;;1.75;1.20;;;;;;;;;;4999477;28;20137;-49
2021/10/14 13:27:39;;;;;;;9.23;1.83;;;;;;;;;;4994927;28;20042;-48
2021/10/14 13:30:05;;;;;;;3.05;1.80;;;;;;;;;;4989414;28;20864;-49
2021/10/14 13:32:30;;;;;;;12.93;3.75;;;;;;;;;;4985010;28;20060;-48
2021/10/14 13:34:56;;;;;;;4.85;2.15;;;;;;;;;;4985901;28;20030;-46
2021/10/14 13:37:21;;;;;;;9.70;1.92;;;;;;;;;;4987890;28;20392;-45
2021/10/14 13:39:49;;;;;;;6.35;1.95;;;;;;;;;;4989925;28;20014;-48
2021/10/14 13:42:14;;;;;;;5.07;1.73;;;;;;;;;;4989102;28;20022;-46
2021/10/14 13:44:40;;;;;;;5.35;2.13;;;;;;;;;;4988658;28;20137;-50
2021/10/14 13:47:05;;;;;;;6.68;3.28;;;;;;;;;;4991028;28;20038;-46
2021/10/14 13:49:30;;;;;;;11.82;3.88;;;;;;;;;;4996745;28;20027;-44
2021/10/14 13:51:56;;;;;;;3.50;2.38;;;;;;;;;;4991415;28;20091;-50
2021/10/14 13:54:21;;;;;;;5.00;2.78;;;;;;;;;;4987858;28;20499;-49
2021/10/14 13:56:46;;;;;;;9.40;3.85;;;;;;;;;;4987186;28;20434;-48
2021/10/14 13:59:12;;;;;;;14.45;2.28;;;;;;;;;;4991404;28;20031;-50
2021/10/14 14:01:37;;;;;;;3.80;1.60;;;;;;;;;;4988409;28;20018;-51
2021/10/14 14:04:02;;;;;;;8.40;3.60;;;;;;;;;;4989085;28;20018;-47
2021/10/14 14:06:32;;;;;;;3.80;1.95;;;;;;;;;;4990495;28;20738;-50
2021/10/14 14:08:58;;;;;;;4.33;2.10;;;;;;;;;;4983106;28;20026;-48
2021/10/14 14:11:24;;;;;;;21.67;12.88;;;;;;;;;;4989386;28;20030;-49
2021/10/14 14:13:49;;;;;;;7.57;2.35;;;;;;;;;;4993063;28;20697;-50
2021/10/14 14:16:14;;;;;;;5.28;2.35;;;;;;;;;;4994769;28;20006;-52
2021/10/14 14:18:40;;;;;;;4.53;2.55;;;;;;;;;;4992233;28;20045;-49
2021/10/14 14:21:06;;;;;;;4.30;2.10;;;;;;;;;;4990595;28;20117;-52
2021/10/14 14:23:32;;;;;;;12.82;3.65;;;;;;;;;;4985986;28;20750;-49
2021/10/14 14:25:57;;;;;;;5.70;2.47;;;;;;;;;;4988479;28;20113;-47
2021/10/14 14:28:22;;;;;;;6.78;2.22;;;;;;;;;;4987704;28;20022;-46
2021/10/14 14:30:48;;;;;;;10.63;2.17;;;;;;;;;;4989993;28;20030;-51
2021/10/14 14:33:14;;;;;;;3.72;1.52;;;;;;;;;;4991236;28;20023;-47
2021/10/14 14:35:40;;;;;;;10.25;7.07;;;;;;;;;;4990452;28;20025;-53